Time;durP1;ratioP1;P1;durP2;ratioP2;P2;SDS_P1;SDS_P2;PMS_P1;PMS_P2;Temp;Humidity;BMP_temperature;BMP_pressure;BME280_temperature;BME280_humidity;BME280_pressure;Samples;Min_cycle;Max_cycle;Signal;HPM_P1;HPM_P2
2023/07/04 00:01:05;;;;;;;16.23;9.73;;;24.50;98.90;;;;;;5068328;28;20430;-78
2023/07/04 00:03:31;;;;;;;14.80;10.10;;;24.50;99.20;;;;;;5070278;28;20492;-78
2023/07/04 00:05:57;;;;;;;13.90;9.63;;;24.50;99.50;;;;;;5069703;28;20917;-78
2023/07/04 00:08:25;;;;;;;15.77;10.00;;;24.40;99.50;;;;;;5068962;28;20418;-78
2023/07/04 00:10:51;;;;;;;17.27;11.60;;;24.40;99.40;;;;;;5068139;28;20452;-78
2023/07/04 00:13:17;;;;;;;14.73;10.40;;;24.40;99.40;;;;;;5068865;28;20447;-78
2023/07/04 00:15:45;;;;;;;15.83;9.40;;;24.40;99.30;;;;;;5069540;28;20487;-78
2023/07/04 00:18:11;;;;;;;18.47;10.67;;;24.40;99.40;;;;;;5070391;28;20634;-78
2023/07/04 00:20:37;;;;;;;18.43;10.17;;;24.30;99.40;;;;;;5069459;28;20400;-78
2023/07/04 00:23:03;;;;;;;15.77;11.43;;;24.30;99.80;;;;;;5068337;28;20191;-78
2023/07/04 00:25:29;;;;;;;18.77;10.67;;;24.30;99.90;;;;;;5069380;28;20402;-78
2023/07/04 00:27:54;;;;;;;15.60;11.30;;;24.30;99.80;;;;;;5069876;28;20428;-78
2023/07/04 00:30:20;;;;;;;14.80;10.20;;;24.20;99.90;;;;;;5069221;28;20172;-78
2023/07/04 00:32:45;;;;;;;14.30;11.27;;;24.20;99.90;;;;;;5069729;28;20255;-78
2023/07/04 00:35:11;;;;;;;15.80;9.93;;;24.20;99.90;;;;;;5069425;28;20173;-78
2023/07/04 00:37:37;;;;;;;17.87;10.80;;;24.20;99.90;;;;;;5068912;28;20713;-78
2023/07/04 00:40:07;;;;;;;14.90;10.37;;;24.10;99.90;;;;;;5068921;28;20483;-78
2023/07/04 00:42:35;;;;;;;17.83;11.70;;;24.10;99.90;;;;;;5069824;28;20192;-78
2023/07/04 00:45:09;;;;;;;14.47;10.47;;;24.10;99.90;;;;;;5068985;28;20398;-78
2023/07/04 00:47:43;;;;;;;14.10;10.00;;;24.10;99.90;;;;;;5068106;28;20459;-78
2023/07/04 00:50:13;;;;;;;23.00;11.03;;;24.00;99.90;;;;;;5067660;28;20512;-78
2023/07/04 00:52:39;;;;;;;17.50;10.80;;;24.00;99.90;;;;;;5066959;28;20565;-78
2023/07/04 00:55:10;;;;;;;16.10;9.90;;;24.00;99.90;;;;;;5069125;28;20856;-78
2023/07/04 00:57:37;;;;;;;16.20;11.77;;;23.90;99.90;;;;;;5068045;28;20211;-78
2023/07/04 01:00:17;;;;;;;14.67;10.53;;;23.90;99.90;;;;;;5068495;28;20409;-78
2023/07/04 01:02:45;;;;;;;16.13;11.13;;;23.90;99.90;;;;;;5068960;28;20483;-78
2023/07/04 01:05:14;;;;;;;17.87;10.67;;;23.90;99.90;;;;;;5067395;28;20413;-78
2023/07/04 01:07:48;;;;;;;18.43;11.70;;;23.80;99.90;;;;;;5069058;28;20940;-78
2023/07/04 01:10:33;;;;;;;15.97;10.70;;;23.70;99.90;;;;;;5068477;28;20443;-77
2023/07/04 01:13:00;;;;;;;21.93;11.73;;;23.70;99.90;;;;;;5069045;28;20567;-78
2023/07/04 01:15:29;;;;;;;20.80;11.40;;;23.70;99.90;;;;;;5067389;28;20412;-78
2023/07/04 01:17:56;;;;;;;18.07;11.70;;;23.60;99.90;;;;;;5067404;28;20443;-77
2023/07/04 01:20:23;;;;;;;16.63;11.07;;;23.60;99.90;;;;;;5066972;28;20431;-78
2023/07/04 01:23:30;;;;;;;14.73;10.40;;;23.50;99.90;;;;;;5068393;28;20993;-78
2023/07/04 01:26:11;;;;;;;14.30;11.17;;;23.40;99.90;;;;;;5044638;28;20842;-78
2023/07/04 01:28:37;;;;;;;17.70;10.40;;;23.40;99.90;;;;;;5068710;28;20505;-78
2023/07/04 01:31:05;;;;;;;21.37;11.27;;;23.40;99.90;;;;;;5066449;28;20623;-78
2023/07/04 01:33:31;;;;;;;18.17;11.50;;;23.30;99.90;;;;;;5067287;28;20428;-78
2023/07/04 01:35:57;;;;;;;15.83;10.70;;;23.30;99.90;;;;;;5067251;28;20476;-78
2023/07/04 01:38:22;;;;;;;20.23;11.47;;;23.30;99.90;;;;;;5066337;28;20228;-78
2023/07/04 01:40:48;;;;;;;16.73;11.27;;;23.30;99.90;;;;;;5067616;28;20196;-78
2023/07/04 01:43:14;;;;;;;15.90;10.97;;;23.30;99.90;;;;;;5068689;28;20183;-78
2023/07/04 01:45:39;;;;;;;15.70;10.87;;;23.30;99.90;;;;;;5066254;28;20197;-78
2023/07/04 01:48:06;;;;;;;22.40;12.67;;;23.20;99.90;;;;;;5066916;28;20182;-78
2023/07/04 01:50:32;;;;;;;17.50;10.70;;;23.20;99.90;;;;;;5066574;28;20442;-78
2023/07/04 01:52:58;;;;;;;15.27;10.40;;;23.20;99.90;;;;;;5068344;28;21169;-78
2023/07/04 01:55:23;;;;;;;15.90;11.10;;;23.20;99.90;;;;;;5066331;28;20169;-78
2023/07/04 01:57:49;;;;;;;18.53;11.80;;;23.10;99.90;;;;;;5066426;28;20206;-77
2023/07/04 02:00:15;;;;;;;17.40;11.10;;;23.10;99.90;;;;;;5067519;28;20537;-78
2023/07/04 02:02:41;;;;;;;14.90;11.47;;;23.10;99.90;;;;;;5067955;28;20697;-78
2023/07/04 02:05:08;;;;;;;18.57;11.50;;;23.00;99.90;;;;;;5067530;28;20415;-77
2023/07/04 02:07:34;;;;;;;18.20;11.23;;;23.00;99.90;;;;;;5066506;28;20442;-78
2023/07/04 02:10:00;;;;;;;15.87;12.10;;;23.00;99.90;;;;;;5066020;28;20606;-78
2023/07/04 02:12:25;;;;;;;28.53;12.47;;;22.90;99.90;;;;;;5067870;28;20520;-78
2023/07/04 02:14:51;;;;;;;17.73;11.43;;;22.90;99.90;;;;;;5067265;28;20169;-78
2023/07/04 02:17:17;;;;;;;20.30;12.93;;;22.90;99.90;;;;;;5068063;28;20199;-77
2023/07/04 02:19:42;;;;;;;20.00;12.90;;;22.80;99.90;;;;;;5067255;28;20169;-77
2023/07/04 02:22:08;;;;;;;18.33;10.30;;;22.80;99.90;;;;;;5067545;28;20215;-77
2023/07/04 02:24:34;;;;;;;13.57;10.50;;;22.80;99.90;;;;;;5067825;28;20610;-78
2023/07/04 02:27:00;;;;;;;16.80;12.27;;;22.70;99.90;;;;;;5067264;28;20232;-78
2023/07/04 02:29:26;;;;;;;23.23;11.80;;;22.70;99.90;;;;;;5065921;28;20425;-78
2023/07/04 02:31:51;;;;;;;17.67;13.07;;;22.70;99.90;;;;;;5067321;28;20767;-78
2023/07/04 02:34:17;;;;;;;14.90;9.63;;;22.60;99.90;;;;;;5067384;28;20645;-78
2023/07/04 02:36:43;;;;;;;15.70;10.43;;;22.60;99.90;;;;;;5066701;28;20847;-78
2023/07/04 02:39:09;;;;;;;16.90;11.77;;;22.50;99.90;;;;;;5063685;28;20542;-78
2023/07/04 02:41:35;;;;;;;17.03;11.83;;;22.50;99.90;;;;;;5063950;28;20438;-78
2023/07/04 02:44:01;;;;;;;15.60;11.13;;;22.50;99.90;;;;;;5065692;28;20429;-78
2023/07/04 02:46:26;;;;;;;15.87;10.97;;;22.50;99.90;;;;;;5067002;28;20681;-78
2023/07/04 02:48:52;;;;;;;17.27;11.13;;;22.50;99.90;;;;;;5066372;28;20641;-78
2023/07/04 02:51:18;;;;;;;17.00;11.83;;;22.40;99.90;;;;;;5066458;28;20209;-78
2023/07/04 02:53:43;;;;;;;14.90;9.60;;;22.40;99.90;;;;;;5065991;28;20173;-78
2023/07/04 02:56:11;;;;;;;15.80;11.60;;;22.50;99.90;;;;;;5065846;28;20189;-78
2023/07/04 02:58:36;;;;;;;14.80;10.53;;;22.60;99.90;;;;;;5067386;28;20181;-78
2023/07/04 03:01:04;;;;;;;15.73;11.83;;;22.70;99.90;;;;;;5065127;28;20949;-78
2023/07/04 03:03:30;;;;;;;19.27;11.97;;;22.80;99.90;;;;;;5067529;28;20677;-78
2023/07/04 03:05:56;;;;;;;17.43;12.60;;;22.80;99.90;;;;;;5066486;28;20429;-77
2023/07/04 03:08:21;;;;;;;16.50;11.50;;;22.90;99.90;;;;;;5067492;28;20188;-78
2023/07/04 03:10:47;;;;;;;16.13;11.17;;;22.90;99.90;;;;;;5064998;28;20422;-78
2023/07/04 03:13:14;;;;;;;17.53;12.40;;;23.00;99.90;;;;;;5067387;28;20189;-78
2023/07/04 03:15:40;;;;;;;14.87;11.10;;;23.00;99.90;;;;;;5065410;28;20175;-78
2023/07/04 03:18:06;;;;;;;17.13;11.80;;;23.00;99.90;;;;;;5065785;28;20442;-77
2023/07/04 03:20:31;;;;;;;18.10;10.80;;;23.00;99.90;;;;;;5066936;28;20793;-78
2023/07/04 03:22:57;;;;;;;19.00;11.17;;;23.10;99.90;;;;;;5065651;28;20939;-78
2023/07/04 03:25:23;;;;;;;14.23;11.13;;;23.00;99.90;;;;;;5065205;28;20646;-78
2023/07/04 03:27:49;;;;;;;15.30;10.70;;;23.00;99.90;;;;;;5065372;28;20209;-78
2023/07/04 03:30:15;;;;;;;16.37;11.97;;;23.00;99.90;;;;;;5066806;28;20173;-78
2023/07/04 03:32:41;;;;;;;15.70;10.33;;;22.90;99.90;;;;;;5066722;28;20279;-78
2023/07/04 03:35:08;;;;;;;17.27;10.77;;;23.00;99.90;;;;;;5065655;28;20394;-78
2023/07/04 03:37:35;;;;;;;21.10;12.40;;;23.00;99.90;;;;;;5066458;28;20728;-78
2023/07/04 03:40:06;;;;;;;16.20;11.47;;;22.90;99.90;;;;;;5065899;28;20402;-78
2023/07/04 03:42:32;;;;;;;18.33;12.27;;;23.00;99.90;;;;;;5064962;28;20579;-78
2023/07/04 03:44:57;;;;;;;20.90;12.77;;;23.00;99.90;;;;;;5066203;28;20394;-78
2023/07/04 03:47:23;;;;;;;20.33;12.73;;;23.10;99.90;;;;;;5050268;28;20528;-78
2023/07/04 03:49:49;;;;;;;17.93;11.47;;;23.10;99.90;;;;;;5044575;28;20565;-78
2023/07/04 03:52:14;;;;;;;17.00;11.40;;;23.10;99.90;;;;;;5045002;28;20234;-79
2023/07/04 03:54:40;;;;;;;18.33;11.80;;;23.20;99.90;;;;;;5046016;28;20206;-78
2023/07/04 03:57:06;;;;;;;16.07;10.70;;;23.20;99.90;;;;;;5046760;28;20525;-78
2023/07/04 03:59:31;;;;;;;18.87;12.00;;;23.20;99.90;;;;;;5045587;28;20178;-78
2023/07/04 04:01:57;;;;;;;15.87;10.43;;;23.30;99.90;;;;;;5048382;28;20208;-78
2023/07/04 04:04:23;;;;;;;13.80;9.60;;;23.30;99.90;;;;;;5049535;28;20186;-78
2023/07/04 04:06:49;;;;;;;16.00;11.47;;;23.30;99.90;;;;;;5049953;28;20300;-78
2023/07/04 04:09:15;;;;;;;17.23;10.83;;;23.30;99.90;;;;;;5049834;28;20175;-78
2023/07/04 04:11:41;;;;;;;16.37;11.33;;;23.40;99.90;;;;;;5049759;28;20214;-78
2023/07/04 04:14:08;;;;;;;13.97;11.13;;;23.40;99.90;;;;;;5049434;28;20414;-78
2023/07/04 04:16:34;;;;;;;19.60;12.47;;;23.40;99.90;;;;;;5049544;28;20199;-77
2023/07/04 04:19:01;;;;;;;19.00;11.53;;;23.40;99.90;;;;;;5049408;28;20417;-78
2023/07/04 04:21:27;;;;;;;16.70;11.70;;;23.50;99.90;;;;;;5048428;28;20287;-78
2023/07/04 04:23:52;;;;;;;19.00;11.60;;;23.50;99.90;;;;;;5049506;28;20507;-78
2023/07/04 04:26:19;;;;;;;19.77;12.73;;;23.50;99.90;;;;;;5049427;28;20200;-78
2023/07/04 04:28:45;;;;;;;16.57;11.60;;;23.50;99.90;;;;;;5049504;28;20176;-78
2023/07/04 04:31:11;;;;;;;15.10;12.40;;;23.60;99.90;;;;;;5048161;28;20478;-78
2023/07/04 04:33:37;;;;;;;19.00;13.17;;;23.60;99.90;;;;;;5049401;28;20436;-78
2023/07/04 04:36:04;;;;;;;24.50;13.70;;;23.60;99.90;;;;;;5063616;28;20956;-78
2023/07/04 04:38:29;;;;;;;18.30;12.20;;;23.70;99.90;;;;;;5067664;28;20195;-78
2023/07/04 04:41:03;;;;;;;29.13;14.60;;;23.70;99.90;;;;;;5068488;28;20424;-78
2023/07/04 04:43:29;;;;;;;19.23;12.67;;;23.70;99.90;;;;;;5068075;28;20828;-78
2023/07/04 04:45:57;;;;;;;19.73;11.80;;;23.70;99.90;;;;;;5068712;28;20498;-78
2023/07/04 04:48:29;;;;;;;18.70;11.80;;;23.70;99.90;;;;;;5069517;28;20429;-78
2023/07/04 04:50:57;;;;;;;18.40;11.37;;;23.70;99.90;;;;;;5068745;28;20421;-78
2023/07/04 04:53:24;;;;;;;14.87;11.90;;;23.80;99.90;;;;;;5069130;28;20489;-78
2023/07/04 04:55:51;;;;;;;16.50;11.37;;;23.80;99.90;;;;;;5068712;28;20459;-78
2023/07/04 04:58:18;;;;;;;16.47;12.07;;;23.80;99.90;;;;;;5067445;28;20624;-77
2023/07/04 05:00:44;;;;;;;15.53;11.37;;;23.80;99.90;;;;;;5057785;28;20412;-78
2023/07/04 05:03:13;;;;;;;18.20;11.87;;;23.90;99.90;;;;;;5057707;28;20554;-78
2023/07/04 05:05:39;;;;;;;14.87;11.40;;;23.90;99.90;;;;;;5058715;28;20425;-78
2023/07/04 05:08:05;;;;;;;16.83;11.07;;;23.90;99.90;;;;;;5058277;28;20828;-78
2023/07/04 05:10:30;;;;;;;14.80;11.20;;;24.00;99.90;;;;;;5055679;28;20397;-78
2023/07/04 05:12:57;;;;;;;14.90;11.63;;;24.00;99.90;;;;;;5057674;28;20911;-78
2023/07/04 05:15:24;;;;;;;17.70;11.90;;;24.00;99.90;;;;;;5055780;28;20689;-78
2023/07/04 05:17:49;;;;;;;16.00;11.37;;;24.10;99.90;;;;;;5055526;28;20452;-78
2023/07/04 05:20:22;;;;;;;14.20;11.37;;;24.10;99.90;;;;;;5054678;28;20394;-78
2023/07/04 05:22:48;;;;;;;13.60;11.07;;;24.10;99.90;;;;;;5055366;28;20235;-78
2023/07/04 05:25:14;;;;;;;17.00;11.20;;;24.10;99.90;;;;;;5055803;28;20813;-78
2023/07/04 05:27:40;;;;;;;15.27;11.07;;;24.10;99.90;;;;;;5057489;28;20448;-79
2023/07/04 05:30:06;;;;;;;16.97;11.60;;;24.10;99.90;;;;;;5060307;28;20216;-78
2023/07/04 05:32:31;;;;;;;20.90;11.40;;;24.10;99.90;;;;;;5066939;28;20769;-78
2023/07/04 05:34:57;;;;;;;16.43;11.20;;;24.20;99.90;;;;;;5066041;28;20413;-78
2023/07/04 05:37:23;;;;;;;14.23;10.87;;;24.20;99.90;;;;;;5065594;28;20291;-78
2023/07/04 05:39:50;;;;;;;17.03;10.60;;;24.20;99.90;;;;;;5047860;28;20176;-78
2023/07/04 05:42:16;;;;;;;18.00;10.80;;;24.20;99.90;;;;;;5048100;28;20201;-79
2023/07/04 05:44:41;;;;;;;15.00;10.70;;;24.20;99.90;;;;;;5057886;28;20575;-78
2023/07/04 05:47:07;;;;;;;13.90;9.90;;;24.20;99.90;;;;;;5061140;28;20204;-78
2023/07/04 05:49:33;;;;;;;13.07;10.37;;;24.20;99.90;;;;;;5063946;28;20692;-78
2023/07/04 05:51:59;;;;;;;17.13;9.77;;;24.20;99.90;;;;;;5064582;28;20499;-78
2023/07/04 05:54:24;;;;;;;19.87;12.90;;;24.30;99.90;;;;;;5060509;28;20493;-79
2023/07/04 05:56:55;;;;;;;14.30;10.57;;;24.30;99.90;;;;;;5057560;28;20263;-78
2023/07/04 05:59:21;;;;;;;13.33;10.30;;;24.40;99.90;;;;;;5061984;28;20599;-79
2023/07/04 06:01:47;;;;;;;14.90;9.67;;;24.40;99.90;;;;;;5063276;28;20457;-78
2023/07/04 06:04:13;;;;;;;14.10;10.30;;;24.40;99.90;;;;;;5061989;28;20507;-79
2023/07/04 06:06:42;;;;;;;14.80;10.23;;;24.40;99.90;;;;;;5054686;28;20470;-78
2023/07/04 06:09:13;;;;;;;18.63;11.17;;;24.40;99.90;;;;;;5057324;28;21046;-78
2023/07/04 06:11:45;;;;;;;11.87;9.30;;;24.50;99.90;;;;;;5051203;28;21016;-80
2023/07/04 06:14:17;;;;;;;11.43;8.73;;;24.50;99.90;;;;;;5043627;28;20394;-79
2023/07/04 06:16:43;;;;;;;14.10;10.70;;;24.60;99.90;;;;;;5055323;28;20489;-78
2023/07/04 06:19:08;;;;;;;12.80;9.33;;;24.60;99.90;;;;;;5058617;28;21079;-77
2023/07/04 06:21:35;;;;;;;13.20;9.07;;;24.50;99.90;;;;;;5059470;28;20232;-78
2023/07/04 06:24:01;;;;;;;16.73;10.00;;;24.50;99.90;;;;;;5054102;28;20367;-79
2023/07/04 06:26:31;;;;;;;12.90;9.80;;;24.60;99.90;;;;;;5058560;28;20581;-77
2023/07/04 06:28:58;;;;;;;13.97;9.07;;;24.60;99.90;;;;;;5054703;28;20557;-78
2023/07/04 06:31:25;;;;;;;11.83;9.27;;;24.60;99.90;;;;;;5052284;28;20797;-79
2023/07/04 06:33:51;;;;;;;13.87;9.40;;;24.60;99.90;;;;;;5054666;28;20438;-77
2023/07/04 06:36:17;;;;;;;13.07;9.40;;;24.60;99.90;;;;;;5038224;28;20496;-78
2023/07/04 06:38:43;;;;;;;10.27;8.63;;;24.50;99.90;;;;;;5048443;28;20528;-78
2023/07/04 06:41:12;;;;;;;13.03;10.17;;;24.50;99.90;;;;;;5057260;28;20548;-79
2023/07/04 06:43:39;;;;;;;10.60;9.00;;;24.50;99.90;;;;;;5058993;28;20917;-79
2023/07/04 06:46:05;;;;;;;13.33;8.90;;;24.50;99.90;;;;;;5059279;28;20815;-79
2023/07/04 06:48:31;;;;;;;12.50;10.40;;;24.50;99.90;;;;;;5062779;28;20436;-79
2023/07/04 06:51:05;;;;;;;10.53;8.80;;;24.40;99.90;;;;;;5056041;28;20787;-77
2023/07/04 06:53:32;;;;;;;10.77;8.50;;;24.40;99.90;;;;;;5051974;28;20199;-78
2023/07/04 06:56:19;;;;;;;11.30;9.13;;;24.50;99.90;;;;;;5060394;28;20449;-79
2023/07/04 06:58:49;;;;;;;12.67;10.00;;;24.50;99.90;;;;;;5048792;28;20418;-77
2023/07/04 07:01:16;;;;;;;13.20;10.20;;;24.60;99.90;;;;;;5055750;28;20448;-77
2023/07/04 07:03:42;;;;;;;12.27;10.13;;;24.80;99.90;;;;;;5058038;28;20477;-80
2023/07/04 07:06:09;;;;;;;13.33;11.00;;;24.90;99.90;;;;;;5055793;28;20469;-81
2023/07/04 07:08:36;;;;;;;12.50;9.30;;;24.90;99.90;;;;;;5059010;28;20196;-79
2023/07/04 07:11:05;;;;;;;16.53;10.87;;;25.00;99.90;;;;;;5053207;28;20458;-80
2023/07/04 07:13:31;;;;;;;15.67;10.87;;;25.10;99.90;;;;;;5046286;28;20618;-79
2023/07/04 07:16:12;;;;;;;13.97;11.20;;;25.20;99.90;;;;;;5052824;28;20438;-79
2023/07/04 07:18:39;;;;;;;14.57;10.23;;;25.20;99.90;;;;;;5045139;28;20535;-80
2023/07/04 07:21:06;;;;;;;11.80;9.30;;;25.30;99.90;;;;;;5050757;28;20574;-80
2023/07/04 07:23:34;;;;;;;10.83;8.67;;;25.30;99.90;;;;;;5051019;28;20982;-76
2023/07/04 07:26:02;;;;;;;12.37;9.80;;;25.30;99.90;;;;;;5054058;28;20453;-76
2023/07/04 07:28:29;;;;;;;14.50;9.90;;;25.30;99.90;;;;;;5059545;28;20425;-79
2023/07/04 07:31:10;;;;;;;11.40;8.87;;;25.20;99.90;;;;;;5057517;28;20461;-76
2023/07/04 07:33:38;;;;;;;11.50;9.60;;;25.20;99.90;;;;;;5056634;28;20536;-76
2023/07/04 07:36:21;;;;;;;12.27;9.20;;;25.30;99.90;;;;;;5062731;28;20993;-79
2023/07/04 07:38:48;;;;;;;17.03;9.40;;;25.40;99.90;;;;;;5058957;28;20452;-79
2023/07/04 07:41:14;;;;;;;12.10;9.70;;;25.40;99.90;;;;;;5060606;28;20441;-76
2023/07/04 07:43:41;;;;;;;12.37;9.30;;;25.50;99.90;;;;;;5056822;28;20735;-80
2023/07/04 07:46:12;;;;;;;11.53;8.50;;;25.50;99.90;;;;;;5061310;28;20520;-76
2023/07/04 07:48:38;;;;;;;12.77;8.43;;;25.60;99.90;;;;;;5064667;28;20441;-79
2023/07/04 07:51:06;;;;;;;9.77;8.07;;;25.60;99.90;;;;;;5063995;28;20489;-80
2023/07/04 07:53:32;;;;;;;12.93;8.10;;;25.60;99.90;;;;;;5053902;28;20444;-79
2023/07/04 07:55:57;;;;;;;11.33;7.50;;;25.60;99.90;;;;;;5050703;28;20934;-76
2023/07/04 07:58:23;;;;;;;11.60;8.17;;;25.70;99.90;;;;;;5056150;28;20189;-76
2023/07/04 08:00:49;;;;;;;9.93;7.93;;;25.70;99.90;;;;;;5055322;28;20727;-79
2023/07/04 08:03:15;;;;;;;9.60;8.10;;;25.80;99.90;;;;;;5069408;28;20572;-76
2023/07/04 08:05:41;;;;;;;10.50;8.10;;;25.80;99.90;;;;;;5052928;28;20738;-76
2023/07/04 08:08:09;;;;;;;10.80;8.10;;;25.90;99.90;;;;;;5059760;28;20181;-79
2023/07/04 08:10:36;;;;;;;10.03;8.20;;;26.00;99.90;;;;;;5057602;28;20446;-75
2023/07/04 08:13:02;;;;;;;10.13;8.07;;;26.00;99.90;;;;;;5060337;28;20469;-80
2023/07/04 08:15:28;;;;;;;10.17;8.23;;;26.00;99.90;;;;;;5050888;28;20410;-78
2023/07/04 08:17:53;;;;;;;10.43;7.57;;;26.00;99.90;;;;;;5062468;28;20430;-76
2023/07/04 08:20:21;;;;;;;12.70;8.70;;;26.00;99.90;;;;;;5056531;28;20838;-79
2023/07/04 08:22:47;;;;;;;9.07;7.53;;;26.10;99.90;;;;;;5046746;28;20197;-79
2023/07/04 08:25:13;;;;;;;9.67;7.23;;;26.00;99.90;;;;;;5061445;28;20572;-75
2023/07/04 08:27:39;;;;;;;13.20;8.43;;;26.00;99.90;;;;;;5063609;28;20933;-79
2023/07/04 08:30:05;;;;;;;11.80;8.53;;;26.00;99.90;;;;;;5055811;28;20989;-75
2023/07/04 08:32:33;;;;;;;9.37;7.80;;;26.00;99.90;;;;;;5042311;28;20352;-79
2023/07/04 08:34:59;;;;;;;12.67;8.27;;;26.00;99.90;;;;;;5053593;28;20541;-79
2023/07/04 08:37:25;;;;;;;12.80;9.37;;;26.00;99.90;;;;;;5060295;28;20548;-79
2023/07/04 08:39:51;;;;;;;12.97;9.07;;;26.00;99.90;;;;;;5059126;28;20444;-79
2023/07/04 08:42:18;;;;;;;10.30;7.93;;;26.00;99.90;;;;;;5063265;28;20291;-79
2023/07/04 08:44:50;;;;;;;10.80;8.40;;;26.00;99.90;;;;;;5061730;28;20174;-76
2023/07/04 08:47:18;;;;;;;11.10;8.30;;;26.00;99.90;;;;;;5056328;28;20445;-76
2023/07/04 08:49:48;;;;;;;15.23;8.57;;;26.10;99.90;;;;;;5064302;28;20422;-75
2023/07/04 08:52:28;;;;;;;15.20;8.93;;;26.20;99.90;;;;;;5059179;28;20654;-79
2023/07/04 08:54:55;;;;;;;10.23;8.07;;;26.30;99.90;;;;;;5072418;28;20684;-75
2023/07/04 08:57:36;;;;;;;12.60;8.77;;;26.40;99.90;;;;;;5055171;28;20850;-79
2023/07/04 09:00:16;;;;;;;12.87;8.63;;;26.30;99.90;;;;;;5052887;28;20528;-76
2023/07/04 09:03:11;;;;;;;16.47;8.60;;;26.40;99.90;;;;;;5057158;28;20484;-75
2023/07/04 09:05:48;;;;;;;12.23;8.97;;;26.40;99.90;;;;;;5052881;28;20532;-80
2023/07/04 09:08:36;;;;;;;13.17;8.80;;;26.50;99.90;;;;;;5057747;28;21428;-79
2023/07/04 09:11:06;;;;;;;13.53;7.83;;;26.60;99.90;;;;;;5057072;28;20758;-80
2023/07/04 09:13:39;;;;;;;10.80;8.53;;;26.60;99.90;;;;;;5055594;28;20449;-76
2023/07/04 09:16:10;;;;;;;11.37;9.30;;;26.50;99.90;;;;;;5052068;28;20592;-75
2023/07/04 09:18:41;;;;;;;9.43;8.43;;;26.60;99.90;;;;;;5058136;28;20530;-80
2023/07/04 09:21:19;;;;;;;11.23;8.23;;;26.50;99.90;;;;;;5050678;28;20992;-75
2023/07/04 09:23:46;;;;;;;10.63;7.90;;;26.50;99.90;;;;;;5056961;28;20438;-75
2023/07/04 09:26:16;;;;;;;13.67;9.03;;;26.50;99.90;;;;;;5056993;28;20450;-79
2023/07/04 09:28:44;;;;;;;10.63;8.00;;;26.50;99.90;;;;;;5055695;28;20846;-75
2023/07/04 09:31:24;;;;;;;11.00;8.37;;;26.60;99.90;;;;;;5053952;28;20540;-80
2023/07/04 09:33:52;;;;;;;9.13;7.60;;;26.60;99.90;;;;;;5050150;28;20447;-75
2023/07/04 09:36:20;;;;;;;11.63;8.10;;;26.60;99.90;;;;;;5052712;28;20742;-75
2023/07/04 09:38:57;;;;;;;11.13;8.07;;;26.70;99.90;;;;;;5056925;28;20666;-75
2023/07/04 09:41:27;;;;;;;11.50;7.57;;;26.90;99.90;;;;;;5054827;28;21019;-80
2023/07/04 09:43:55;;;;;;;11.23;8.00;;;27.00;99.90;;;;;;5058684;28;20836;-75
2023/07/04 09:46:29;;;;;;;12.97;8.60;;;27.00;99.90;;;;;;5055763;28;20441;-80
2023/07/04 09:49:15;;;;;;;12.07;8.10;;;27.10;99.90;;;;;;5056421;28;20450;-76
2023/07/04 09:51:41;;;;;;;12.70;8.53;;;27.20;99.90;;;;;;5059390;28;21062;-80
2023/07/04 09:54:12;;;;;;;11.40;8.87;;;27.30;99.90;;;;;;5063983;28;20613;-80
2023/07/04 09:56:38;;;;;;;9.80;8.20;;;27.20;99.90;;;;;;5054408;28;20310;-76
2023/07/04 09:59:21;;;;;;;9.97;6.77;;;27.20;99.90;;;;;;5058156;28;20422;-77
2023/07/04 10:01:57;;;;;;;10.10;8.27;;;27.20;99.90;;;;;;5056417;28;20481;-79
2023/07/04 10:04:45;;;;;;;10.40;7.63;;;27.10;99.90;;;;;;5054626;28;20527;-80
2023/07/04 10:07:17;;;;;;;10.23;7.40;;;27.10;99.90;;;;;;5056899;28;20460;-78
2023/07/04 10:09:46;;;;;;;10.00;8.20;;;27.10;99.90;;;;;;5048062;28;20843;-80
2023/07/04 10:12:13;;;;;;;9.97;7.63;;;27.10;99.90;;;;;;5050378;28;20482;-75
2023/07/04 10:14:52;;;;;;;10.10;7.43;;;27.10;99.90;;;;;;5054102;28;20434;-73
2023/07/04 10:17:44;;;;;;;9.10;7.97;;;27.10;99.90;;;;;;5052199;28;20737;-76
2023/07/04 10:20:13;;;;;;;11.33;8.90;;;27.10;99.90;;;;;;5049578;28;20518;-75
2023/07/04 10:22:46;;;;;;;12.93;8.87;;;27.00;99.90;;;;;;5051925;28;20469;-76
2023/07/04 10:25:17;;;;;;;12.60;8.50;;;27.00;99.90;;;;;;5052753;28;20435;-75
2023/07/04 10:27:49;;;;;;;9.93;7.60;;;27.00;99.90;;;;;;5055262;28;20459;-80
2023/07/04 10:30:30;;;;;;;13.53;8.13;;;27.00;99.90;;;;;;5057729;28;21135;-80
2023/07/04 10:33:14;;;;;;;8.83;7.80;;;27.00;99.90;;;;;;5055894;28;20477;-80
2023/07/04 10:35:42;;;;;;;10.80;7.93;;;27.10;99.90;;;;;;5054394;28;20500;-79
2023/07/04 10:38:17;;;;;;;10.93;8.50;;;27.10;99.90;;;;;;5056235;28;20434;-76
2023/07/04 10:40:44;;;;;;;13.17;8.50;;;27.10;99.90;;;;;;5068266;28;20440;-79
2023/07/04 10:43:13;;;;;;;12.27;8.40;;;27.10;99.90;;;;;;5054030;28;20483;-76
2023/07/04 10:45:41;;;;;;;10.50;8.50;;;27.10;99.90;;;;;;5054376;28;20480;-80
2023/07/04 10:48:14;;;;;;;12.33;8.80;;;27.10;99.90;;;;;;5054438;28;20681;-79
2023/07/04 10:50:47;;;;;;;12.60;7.53;;;27.20;99.90;;;;;;5058399;28;20438;-76
2023/07/04 10:53:13;;;;;;;9.77;8.60;;;27.20;99.90;;;;;;5055118;28;20994;-80
2023/07/04 10:55:51;;;;;;;10.43;8.40;;;27.20;99.90;;;;;;5073864;28;20438;-76
2023/07/04 10:58:22;;;;;;;11.70;8.97;;;27.20;99.90;;;;;;5056171;28;20415;-79
2023/07/04 11:00:59;;;;;;;11.73;8.80;;;27.20;99.90;;;;;;5053128;28;21033;-79
2023/07/04 11:03:30;;;;;;;10.33;8.27;;;27.30;99.90;;;;;;5046693;28;20482;-76
2023/07/04 11:05:57;;;;;;;10.20;7.63;;;27.40;99.90;;;;;;5058846;28;20438;-79
2023/07/04 11:08:29;;;;;;;10.70;8.93;;;27.40;99.90;;;;;;5061378;28;20795;-79
2023/07/04 11:11:05;;;;;;;14.67;12.83;;;27.60;99.90;;;;;;5057937;28;20442;-80
2023/07/04 11:13:32;;;;;;;14.90;10.47;;;27.50;99.90;;;;;;5058213;28;20492;-76
2023/07/04 11:16:03;;;;;;;13.10;9.80;;;27.80;99.90;;;;;;5048593;28;20450;-77
2023/07/04 11:18:36;;;;;;;16.10;10.20;;;27.80;99.90;;;;;;5052468;28;20766;-76
2023/07/04 11:21:08;;;;;;;13.17;8.70;;;27.80;99.90;;;;;;5052060;28;20549;-77
2023/07/04 11:24:07;;;;;;;11.33;9.63;;;27.70;99.90;;;;;;5052928;28;20455;-78
2023/07/04 11:26:57;;;;;;;11.77;8.37;;;27.80;99.90;;;;;;5055449;28;20911;-78
2023/07/04 11:29:23;;;;;;;11.27;8.53;;;27.80;99.90;;;;;;5053710;28;20469;-75
2023/07/04 11:32:02;;;;;;;13.23;8.33;;;27.70;99.90;;;;;;5056896;28;20548;-78
2023/07/04 11:34:51;;;;;;;10.90;9.13;;;27.70;99.90;;;;;;5056141;28;20439;-80
2023/07/04 11:37:45;;;;;;;8.70;7.80;;;27.60;99.90;;;;;;5058887;28;20832;-77
2023/07/04 11:40:26;;;;;;;13.53;8.27;;;27.90;99.90;;;;;;5052866;28;20420;-76
2023/07/04 11:42:59;;;;;;;10.47;8.23;;;28.10;99.90;;;;;;5053528;28;20439;-79
2023/07/04 11:45:29;;;;;;;15.60;9.00;;;28.20;99.90;;;;;;5058120;28;20603;-76
2023/07/04 11:48:03;;;;;;;11.87;8.40;;;28.30;99.90;;;;;;5061940;28;20467;-76
2023/07/04 11:50:34;;;;;;;17.90;8.17;;;28.30;99.90;;;;;;5049174;28;21106;-76
2023/07/04 11:53:02;;;;;;;13.13;8.47;;;28.30;99.90;;;;;;5059864;28;20519;-78
2023/07/04 11:55:37;;;;;;;9.20;6.97;;;28.30;99.90;;;;;;5051682;28;20437;-76
2023/07/04 11:58:06;;;;;;;11.80;8.00;;;28.30;99.90;;;;;;5072042;28;20518;-76
2023/07/04 12:00:38;;;;;;;10.87;7.97;;;28.10;99.90;;;;;;5053936;28;20459;-77
2023/07/04 12:03:21;;;;;;;12.10;7.73;;;27.80;99.90;;;;;;5058135;28;20472;-79
2023/07/04 12:05:58;;;;;;;11.87;8.17;;;27.70;99.90;;;;;;5051606;28;20458;-76
2023/07/04 12:08:33;;;;;;;9.33;8.00;;;27.50;99.90;;;;;;5056773;28;20494;-79
2023/07/04 12:11:01;;;;;;;8.53;6.73;;;27.30;99.90;;;;;;5055434;28;20790;-80
2023/07/04 12:13:31;;;;;;;11.97;6.70;;;27.20;99.90;;;;;;5055145;28;20479;-79
2023/07/04 12:15:57;;;;;;;8.73;7.27;;;27.10;99.90;;;;;;5053172;28;20720;-76
2023/07/04 12:18:27;;;;;;;9.17;7.23;;;27.10;99.90;;;;;;5057151;28;20746;-78
2023/07/04 12:20:55;;;;;;;9.63;7.23;;;27.00;99.90;;;;;;5056556;28;20465;-78
2023/07/04 12:23:22;;;;;;;10.30;7.60;;;26.90;99.90;;;;;;5054745;28;20568;-77
2023/07/04 12:25:50;;;;;;;10.80;6.77;;;26.90;99.90;;;;;;5049607;28;20535;-76
2023/07/04 12:28:17;;;;;;;10.47;6.80;;;26.90;99.90;;;;;;5057077;28;20463;-78
2023/07/04 12:30:58;;;;;;;9.30;6.33;;;26.90;99.90;;;;;;5058816;28;20524;-78
2023/07/04 12:33:30;;;;;;;11.90;6.50;;;26.80;99.90;;;;;;5075733;28;20473;-77
2023/07/04 12:36:06;;;;;;;7.97;5.43;;;26.80;99.90;;;;;;5057181;28;20453;-79
2023/07/04 12:38:36;;;;;;;7.80;6.10;;;26.70;99.90;;;;;;5055995;28;20634;-76
2023/07/04 12:41:01;;;;;;;6.47;5.27;;;26.70;99.90;;;;;;5056072;28;20602;-78
2023/07/04 12:43:31;;;;;;;6.13;5.30;;;26.50;99.90;;;;;;5056742;28;20856;-78